createdAt,value
2023-10-28T00:02:16.141Z,3.87
2023-10-28T00:05:20.262Z,4.37
2023-10-28T00:08:24.145Z,3.00
2023-10-28T00:11:28.405Z,3.57
2023-10-28T00:14:32.839Z,3.40
2023-10-28T00:17:38.827Z,3.10
2023-10-28T00:20:45.458Z,3.13
2023-10-28T00:23:49.435Z,3.10
2023-10-28T00:26:53.268Z,3.43
2023-10-28T00:29:57.406Z,3.67
2023-10-28T00:33:02.012Z,3.20
2023-10-28T00:36:08.580Z,2.87
2023-10-28T00:39:12.829Z,4.87
2023-10-28T00:42:18.295Z,3.07
2023-10-28T00:45:22.424Z,2.80
2023-10-28T00:48:27.359Z,2.67
2023-10-28T00:51:33.045Z,2.83
2023-10-28T00:54:37.106Z,2.80
2023-10-28T00:57:45.073Z,2.80
2023-10-28T01:00:49.685Z,3.17
2023-10-28T01:03:55.443Z,3.50
2023-10-28T01:06:59.241Z,3.03
2023-10-28T01:10:04.599Z,3.03
2023-10-28T01:13:09.424Z,3.10
2023-10-28T01:16:14.052Z,2.93
2023-10-28T01:19:18.353Z,2.30
2023-10-28T01:22:22.542Z,3.40
2023-10-28T01:25:26.650Z,3.33
2023-10-28T01:28:30.803Z,3.03
2023-10-28T01:31:35.163Z,2.73
2023-10-28T01:34:52.697Z,2.70
2023-10-28T01:37:56.787Z,2.83
2023-10-28T01:41:01.500Z,3.17
2023-10-28T01:44:06.528Z,2.50
2023-10-28T01:47:10.763Z,3.50
2023-10-28T01:50:15.089Z,3.20
2023-10-28T01:53:19.509Z,3.27
2023-10-28T01:56:23.994Z,2.90
2023-10-28T01:59:28.353Z,3.17
2023-10-28T02:02:37.505Z,2.80
2023-10-28T02:05:41.649Z,2.33
2023-10-28T02:08:46.871Z,2.93
2023-10-28T02:11:53.450Z,3.20
2023-10-28T02:14:57.331Z,2.70
2023-10-28T02:18:01.653Z,3.20
2023-10-28T02:21:05.840Z,3.53
2023-10-28T02:24:10.059Z,2.67
2023-10-28T02:27:14.281Z,2.70
2023-10-28T02:30:18.452Z,2.47
2023-10-28T02:33:22.811Z,3.70
2023-10-28T02:36:26.952Z,2.30
2023-10-28T02:39:31.629Z,3.30
2023-10-28T02:42:36.301Z,3.20
2023-10-28T02:45:40.933Z,3.40
2023-10-28T02:48:44.949Z,3.40
2023-10-28T02:51:49.137Z,3.03
2023-10-28T02:54:54.036Z,3.30
2023-10-28T02:57:58.085Z,3.40
2023-10-28T03:01:12.857Z,3.67
2023-10-28T03:04:18.173Z,3.97
2023-10-28T03:07:22.597Z,2.77
2023-10-28T03:10:27.301Z,3.03
2023-10-28T03:13:31.538Z,2.37
2023-10-28T03:16:36.029Z,2.40
2023-10-28T03:19:40.581Z,1.87
2023-10-28T03:22:44.790Z,2.30
2023-10-28T03:25:48.762Z,2.30
2023-10-28T03:28:52.583Z,2.20
2023-10-28T03:31:56.641Z,1.83
2023-10-28T03:35:00.955Z,2.20
2023-10-28T03:38:05.296Z,2.47
2023-10-28T03:41:12.743Z,2.40
2023-10-28T03:44:16.854Z,2.40
2023-10-28T03:47:22.488Z,2.77
2023-10-28T03:50:26.882Z,1.80
2023-10-28T03:53:31.763Z,2.40
2023-10-28T03:56:35.669Z,2.27
2023-10-28T03:59:39.769Z,3.07
2023-10-28T04:02:43.922Z,1.93
2023-10-28T04:05:51.977Z,2.63
2023-10-28T04:08:56.783Z,2.37
2023-10-28T04:12:01.302Z,2.67
2023-10-28T04:15:06.196Z,3.10
2023-10-28T04:18:10.586Z,3.00
2023-10-28T04:21:15.012Z,2.40
2023-10-28T04:24:19.420Z,2.53
2023-10-28T04:27:23.521Z,2.53
2023-10-28T04:30:28.020Z,2.40
2023-10-28T04:33:32.352Z,3.20
2023-10-28T04:36:36.490Z,2.30
2023-10-28T04:39:42.098Z,3.30
2023-10-28T04:42:48.258Z,2.50
2023-10-28T04:45:53.745Z,1.67
2023-10-28T04:48:58.100Z,1.57
2023-10-28T04:52:02.313Z,1.73
2023-10-28T04:55:06.966Z,1.70
2023-10-28T04:58:11.599Z,1.80
2023-10-28T05:01:16.214Z,1.90
2023-10-28T05:04:20.763Z,1.97
2023-10-28T05:07:25.416Z,2.13
2023-10-28T05:10:31.575Z,4.03
2023-10-28T05:13:35.951Z,3.67
2023-10-28T05:16:40.313Z,4.10
2023-10-28T05:19:45.203Z,4.17
2023-10-28T05:22:49.959Z,3.93
2023-10-28T05:25:55.119Z,3.70
2023-10-28T05:28:59.380Z,3.67
2023-10-28T05:32:03.616Z,4.10
2023-10-28T05:35:11.937Z,2.77
2023-10-28T05:38:16.022Z,2.70
2023-10-28T05:41:20.141Z,2.73
2023-10-28T05:44:24.347Z,3.03
2023-10-28T05:47:28.563Z,3.37
2023-10-28T05:50:32.794Z,3.10
2023-10-28T05:53:37.091Z,3.50
2023-10-28T05:56:41.307Z,5.77
2023-10-28T05:59:45.806Z,4.10
2023-10-28T06:02:50.814Z,4.00
2023-10-28T06:05:56.402Z,3.63
2023-10-28T06:09:00.388Z,3.50
2023-10-28T06:12:05.131Z,3.40
2023-10-28T06:15:10.035Z,3.73
2023-10-28T06:18:14.013Z,3.30
2023-10-28T06:21:17.845Z,2.97
2023-10-28T06:24:21.833Z,3.40
2023-10-28T06:27:26.132Z,3.03
2023-10-28T06:30:30.057Z,3.40
2023-10-28T06:33:33.904Z,5.17
2023-10-28T06:36:38.037Z,3.97
2023-10-28T06:39:42.206Z,4.03
2023-10-28T06:42:46.851Z,4.17
2023-10-28T06:45:51.766Z,3.57
2023-10-28T06:48:55.821Z,4.60
2023-10-28T06:51:59.760Z,4.00
2023-10-28T06:55:04.578Z,4.40
2023-10-28T06:58:08.835Z,3.53
2023-10-28T07:01:13.182Z,3.50
2023-10-28T07:04:17.301Z,2.80
2023-10-28T07:07:21.602Z,3.90
2023-10-28T07:10:26.838Z,2.77
2023-10-28T07:13:31.362Z,2.10
2023-10-28T07:16:35.965Z,2.20
2023-10-28T07:19:40.285Z,2.27
2023-10-28T07:22:44.699Z,1.97
2023-10-28T07:25:49.279Z,1.77
2023-10-28T07:28:53.417Z,2.30
2023-10-28T07:31:58.358Z,2.50
2023-10-28T07:35:03.358Z,3.10
2023-10-28T07:38:07.508Z,3.10
2023-10-28T07:41:11.392Z,2.60
2023-10-28T07:44:15.552Z,1.60
2023-10-28T07:47:19.938Z,1.80
2023-10-28T07:50:24.514Z,1.10
2023-10-28T07:53:28.414Z,1.33
2023-10-28T07:56:33.549Z,1.40
2023-10-28T07:59:37.949Z,1.20
2023-10-28T08:02:46.147Z,1.10
2023-10-28T08:05:50.257Z,1.30
2023-10-28T08:08:54.762Z,1.13
2023-10-28T08:11:58.873Z,1.07
2023-10-28T08:15:04.267Z,0.87
2023-10-28T08:18:08.629Z,0.93
2023-10-28T08:21:15.203Z,1.17
2023-10-28T08:24:22.008Z,1.13
2023-10-28T08:27:26.285Z,0.93
2023-10-28T08:30:30.475Z,1.00
2023-10-28T08:33:38.200Z,0.80
2023-10-28T08:36:45.340Z,0.80
2023-10-28T08:39:49.209Z,1.10
2023-10-28T08:42:53.331Z,0.90
2023-10-28T08:45:57.740Z,0.97
2023-10-28T08:49:02.390Z,0.90
2023-10-28T08:52:08.216Z,1.70
2023-10-28T08:55:12.440Z,0.97
2023-10-28T08:58:17.638Z,1.40
2023-10-28T09:01:25.237Z,1.20
2023-10-28T09:04:29.528Z,1.27
2023-10-28T09:07:33.880Z,1.23
2023-10-28T09:10:42.306Z,1.33
2023-10-28T09:13:46.629Z,1.30
2023-10-28T09:16:50.731Z,1.03
2023-10-28T09:19:55.081Z,1.20
2023-10-28T09:22:59.357Z,1.50
2023-10-28T09:26:04.244Z,1.00
2023-10-28T09:29:09.208Z,1.20
2023-10-28T09:32:13.115Z,1.33
2023-10-28T09:35:17.504Z,1.23
2023-10-28T09:38:21.825Z,1.00
2023-10-28T09:41:28.899Z,1.60
2023-10-28T09:44:35.441Z,1.10
2023-10-28T09:47:39.841Z,1.03
2023-10-28T09:50:50.024Z,1.10
2023-10-28T09:54:01.037Z,0.90
2023-10-28T09:57:05.275Z,1.00
2023-10-28T10:00:24.628Z,0.90
2023-10-28T10:03:35.038Z,2.00
2023-10-28T10:06:38.993Z,0.80
2023-10-28T10:09:49.810Z,0.73
2023-10-28T10:13:04.443Z,0.70
2023-10-28T10:16:15.258Z,0.87
2023-10-28T10:19:29.203Z,1.10
2023-10-28T10:22:36.292Z,0.70
2023-10-28T10:25:44.948Z,0.90
2023-10-28T10:28:49.173Z,1.10
2023-10-28T10:31:54.143Z,0.80
2023-10-28T10:34:58.255Z,0.80
2023-10-28T10:38:09.796Z,0.90
2023-10-28T10:41:25.956Z,1.00
2023-10-28T10:44:35.091Z,0.80
2023-10-28T10:47:39.333Z,0.80
2023-10-28T10:50:43.485Z,1.13
2023-10-28T10:53:47.766Z,1.00
2023-10-28T10:56:52.208Z,1.03
2023-10-28T10:59:56.349Z,1.00
2023-10-28T11:03:01.583Z,1.13
2023-10-28T11:06:06.479Z,0.93
2023-10-28T11:09:10.921Z,1.07
2023-10-28T11:12:15.756Z,0.70
2023-10-28T11:15:22.987Z,1.07
2023-10-28T11:18:27.482Z,1.10
2023-10-28T11:21:32.956Z,1.23
2023-10-28T11:24:38.633Z,1.00
2023-10-28T11:27:42.912Z,1.10
2023-10-28T11:30:51.968Z,1.10
2023-10-28T11:33:58.055Z,1.40
2023-10-28T11:37:02.186Z,0.90
2023-10-28T11:40:07.112Z,1.07
2023-10-28T11:43:17.617Z,0.90
2023-10-28T11:46:22.457Z,1.27
2023-10-28T11:49:26.557Z,0.90
2023-10-28T11:52:30.915Z,1.30
2023-10-28T11:55:35.080Z,0.93
2023-10-28T11:58:39.507Z,1.80
2023-10-28T12:01:43.611Z,1.60
2023-10-28T12:04:47.946Z,1.20
2023-10-28T12:07:51.898Z,1.47
2023-10-28T12:10:56.470Z,1.20
2023-10-28T12:14:00.609Z,1.50
2023-10-28T12:17:05.023Z,1.40
2023-10-28T12:20:09.485Z,1.00
2023-10-28T12:23:14.458Z,1.40
2023-10-28T12:26:21.513Z,1.70
2023-10-28T12:29:26.345Z,1.50
2023-10-28T12:32:30.573Z,1.37
2023-10-28T12:35:35.170Z,1.23
2023-10-28T12:38:46.161Z,1.50
2023-10-28T12:41:50.840Z,1.57
2023-10-28T12:44:54.997Z,1.80
2023-10-28T12:47:59.051Z,2.27
2023-10-28T12:51:03.651Z,1.67
2023-10-28T12:54:07.867Z,1.77
2023-10-28T12:57:12.718Z,3.33
2023-10-28T13:00:18.699Z,1.80
2023-10-28T13:03:22.926Z,2.20
2023-10-28T13:06:27.025Z,2.50
2023-10-28T13:09:31.363Z,2.70
2023-10-28T13:12:35.721Z,2.50
2023-10-28T13:15:41.250Z,2.00
2023-10-28T13:18:45.572Z,1.90
2023-10-28T13:21:50.727Z,2.07
2023-10-28T13:24:54.982Z,2.77
2023-10-28T13:27:59.075Z,2.90
2023-10-28T13:31:03.155Z,2.00
2023-10-28T13:34:09.902Z,2.20
2023-10-28T13:37:16.420Z,2.57
2023-10-28T13:40:20.800Z,2.00
2023-10-28T13:43:25.026Z,1.63
2023-10-28T13:46:29.408Z,2.20
2023-10-28T13:49:34.498Z,1.73
2023-10-28T13:52:39.970Z,1.70
2023-10-28T13:55:43.774Z,1.80
2023-10-28T13:58:48.044Z,2.10
2023-10-28T14:01:52.994Z,2.30
2023-10-28T14:04:57.167Z,2.10
2023-10-28T14:08:01.811Z,1.87
2023-10-28T14:11:09.344Z,1.40
2023-10-28T14:14:14.724Z,2.93
2023-10-28T14:17:18.644Z,2.10
2023-10-28T14:20:22.891Z,1.87
2023-10-28T14:23:27.144Z,1.90
2023-10-28T14:26:31.345Z,2.10
2023-10-28T14:29:35.647Z,1.70
2023-10-28T14:32:39.840Z,2.43
2023-10-28T14:35:44.473Z,1.90
2023-10-28T14:38:48.520Z,1.63
2023-10-28T14:41:52.424Z,1.97
2023-10-28T14:44:56.441Z,2.03
2023-10-28T14:48:01.239Z,2.27
2023-10-28T14:51:08.090Z,1.70
2023-10-28T14:54:13.152Z,2.57
2023-10-28T14:57:17.098Z,2.40
2023-10-28T15:00:23.720Z,1.70
2023-10-28T15:03:27.695Z,2.10
2023-10-28T15:06:32.192Z,2.23
2023-10-28T15:09:36.449Z,1.83
2023-10-28T15:12:40.711Z,1.87
2023-10-28T15:15:44.976Z,2.07
2023-10-28T15:18:50.317Z,2.13
2023-10-28T15:21:56.182Z,1.90
2023-10-28T15:24:59.981Z,1.50
2023-10-28T15:28:04.422Z,2.80
2023-10-28T15:31:10.917Z,3.60
2023-10-28T15:34:15.027Z,1.57
2023-10-28T15:37:19.354Z,1.40
2023-10-28T15:40:24.222Z,1.70
2023-10-28T15:43:29.605Z,1.60
2023-10-28T15:46:33.785Z,1.50
2023-10-28T15:49:38.118Z,1.50
2023-10-28T15:52:42.261Z,1.83
2023-10-28T15:55:46.852Z,1.17
2023-10-28T15:58:52.416Z,1.27
2023-10-28T16:01:56.351Z,1.40
2023-10-28T16:05:00.565Z,1.63
2023-10-28T16:08:05.422Z,1.37
2023-10-28T16:11:12.131Z,2.47
2023-10-28T16:14:16.628Z,1.20
2023-10-28T16:17:21.378Z,1.33
2023-10-28T16:20:25.772Z,1.67
2023-10-28T16:23:30.624Z,1.40
2023-10-28T16:26:35.172Z,1.47
2023-10-28T16:29:39.133Z,1.03
2023-10-28T16:32:43.614Z,2.30
2023-10-28T16:35:48.197Z,1.53
2023-10-28T16:38:52.317Z,1.47
2023-10-28T16:41:56.657Z,1.13
2023-10-28T16:45:00.866Z,1.40
2023-10-28T16:48:05.351Z,1.20
2023-10-28T16:51:14.233Z,1.30
2023-10-28T16:54:18.161Z,1.40
2023-10-28T16:57:22.502Z,1.30
2023-10-28T17:00:26.917Z,1.10
2023-10-28T17:03:31.803Z,1.03
2023-10-28T17:06:35.986Z,1.17
2023-10-28T17:09:40.019Z,1.00
2023-10-28T17:12:44.262Z,1.00
2023-10-28T17:15:48.576Z,1.20
2023-10-28T17:18:52.786Z,1.37
2023-10-28T17:21:56.827Z,1.30
2023-10-28T17:25:01.039Z,2.60
2023-10-28T17:28:05.462Z,3.37
2023-10-28T17:31:12.879Z,1.30
2023-10-28T17:34:17.281Z,1.37
2023-10-28T17:37:21.415Z,1.80
2023-10-28T17:40:25.608Z,6.00
2023-10-28T17:43:29.938Z,1.90
2023-10-28T17:46:34.216Z,1.70
2023-10-28T17:49:38.928Z,1.70
2023-10-28T17:52:44.558Z,1.83
2023-10-28T17:55:48.408Z,1.77
2023-10-28T17:58:52.225Z,1.90
2023-10-28T18:01:56.379Z,1.60
2023-10-28T18:05:00.566Z,1.70
2023-10-28T18:08:04.895Z,2.17
2023-10-28T18:11:09.879Z,1.40
2023-10-28T18:14:14.264Z,1.60
2023-10-28T18:17:18.605Z,1.63
2023-10-28T18:20:23.048Z,1.17
2023-10-28T18:23:32.510Z,1.50
2023-10-28T18:26:37.144Z,1.57
2023-10-28T18:29:42.826Z,1.40
2023-10-28T18:32:46.952Z,2.67
2023-10-28T18:35:51.223Z,1.60
2023-10-28T18:38:55.762Z,1.80
2023-10-28T18:42:00.316Z,1.77
2023-10-28T18:45:05.364Z,2.20
2023-10-28T18:48:10.710Z,1.30
2023-10-28T18:51:15.275Z,1.60
2023-10-28T18:54:19.856Z,1.60
2023-10-28T18:57:24.149Z,1.40
2023-10-28T19:00:28.552Z,1.53
2023-10-28T19:03:33.130Z,1.13
2023-10-28T19:06:36.924Z,1.30
2023-10-28T19:09:41.045Z,1.50
2023-10-28T19:12:45.596Z,1.57
2023-10-28T19:15:50.944Z,1.17
2023-10-28T19:18:55.299Z,1.47
2023-10-28T19:22:00.607Z,1.63
2023-10-28T19:25:06.832Z,1.50
2023-10-28T19:28:11.097Z,2.30
2023-10-28T19:31:15.590Z,1.80
2023-10-28T19:34:20.013Z,1.33
2023-10-28T19:37:24.212Z,1.53
2023-10-28T19:40:28.485Z,1.30
2023-10-28T19:43:35.877Z,1.73
2023-10-28T19:46:39.916Z,2.33
2023-10-28T19:49:44.631Z,1.23
2023-10-28T19:52:48.679Z,5.80
2023-10-28T19:55:53.100Z,1.43
2023-10-28T19:58:56.976Z,2.63
2023-10-28T20:02:01.317Z,1.20
2023-10-28T20:05:07.614Z,1.30
2023-10-28T20:08:11.548Z,1.60
2023-10-28T20:11:16.138Z,1.23
2023-10-28T20:14:21.313Z,1.30
2023-10-28T20:17:26.191Z,1.33
2023-10-28T20:20:30.669Z,2.20
2023-10-28T20:23:34.921Z,1.57
2023-10-28T20:26:39.846Z,1.40
2023-10-28T20:29:44.374Z,2.40
2023-10-28T20:32:48.629Z,1.50
2023-10-28T20:35:53.765Z,1.53
2023-10-28T20:38:58.158Z,2.00
2023-10-28T20:42:02.527Z,2.27
2023-10-28T20:45:09.937Z,1.53
2023-10-28T20:48:14.140Z,1.30
2023-10-28T20:51:21.637Z,1.40
2023-10-28T20:54:25.661Z,1.93
2023-10-28T20:57:29.859Z,1.60
2023-10-28T21:00:34.134Z,2.00
2023-10-28T21:03:38.452Z,1.70
2023-10-28T21:06:42.674Z,1.73
2023-10-28T21:09:47.039Z,1.50
2023-10-28T21:12:51.178Z,2.10
2023-10-28T21:15:56.115Z,1.80
2023-10-28T21:19:00.334Z,2.07
2023-10-28T21:22:04.489Z,1.60
2023-10-28T21:25:08.981Z,1.70
2023-10-28T21:28:13.089Z,1.80
2023-10-28T21:31:17.493Z,1.67
2023-10-28T21:34:21.526Z,1.80
2023-10-28T21:37:26.364Z,1.70
2023-10-28T21:40:30.262Z,1.80
2023-10-28T21:43:34.807Z,1.80
2023-10-28T21:46:39.049Z,2.00
2023-10-28T21:49:43.466Z,2.43
2023-10-28T21:52:47.723Z,1.70
2023-10-28T21:55:51.628Z,2.20
2023-10-28T21:58:56.604Z,2.50
2023-10-28T22:02:00.950Z,2.47
2023-10-28T22:05:05.459Z,2.67
2023-10-28T22:08:09.995Z,2.53
2023-10-28T22:11:13.848Z,3.20
2023-10-28T22:14:18.462Z,2.30
2023-10-28T22:17:23.291Z,2.30
2023-10-28T22:20:27.653Z,2.17
2023-10-28T22:23:31.792Z,1.87
2023-10-28T22:26:35.918Z,1.93
2023-10-28T22:29:40.136Z,2.77
2023-10-28T22:32:44.453Z,1.90
2023-10-28T22:35:48.954Z,2.50
2023-10-28T22:38:54.784Z,2.70
2023-10-28T22:41:58.516Z,1.90
2023-10-28T22:45:05.515Z,2.33
2023-10-28T22:48:09.980Z,2.40
2023-10-28T22:51:14.346Z,2.70
2023-10-28T22:54:18.775Z,2.00
2023-10-28T22:57:23.679Z,1.97
2023-10-28T23:00:32.266Z,2.40
2023-10-28T23:03:36.262Z,1.70
2023-10-28T23:06:40.397Z,1.70
2023-10-28T23:09:44.705Z,1.93
2023-10-28T23:12:49.033Z,1.80
2023-10-28T23:15:53.665Z,1.77
2023-10-28T23:18:57.499Z,1.80
2023-10-28T23:22:01.836Z,1.77
2023-10-28T23:25:09.978Z,1.80
2023-10-28T23:28:14.328Z,1.83
2023-10-28T23:31:18.603Z,2.30
2023-10-28T23:34:22.819Z,1.70
2023-10-28T23:37:34.018Z,1.30
2023-10-28T23:40:38.476Z,1.50
2023-10-28T23:43:42.414Z,1.70
2023-10-28T23:46:47.822Z,1.70
2023-10-28T23:49:51.907Z,1.63
2023-10-28T23:52:56.096Z,2.00
2023-10-28T23:56:00.302Z,1.70
2023-10-28T23:59:04.481Z,1.90
